Time;durP1;ratioP1;P1;durP2;ratioP2;P2;SDS_P1;SDS_P2;PMS_P1;PMS_P2;Temp;Humidity;BMP_temperature;BMP_pressure;BME280_temperature;BME280_humidity;BME280_pressure;Samples;Min_cycle;Max_cycle;Signal;HPM_P1;HPM_P2
2021/08/06 00:00:06;;;;;;;12.07;5.53;;;;;;;29.07;33.96;99111.63;5010239;28;20394;-64
2021/08/06 00:02:32;;;;;;;12.35;5.80;;;;;;;29.22;33.95;99120.44;5009699;28;20028;-67
2021/08/06 00:04:57;;;;;;;16.25;5.63;;;;;;;29.25;34.65;99130.91;5011718;28;20116;-69
2021/08/06 00:07:23;;;;;;;12.55;5.45;;;;;;;29.14;34.80;99131.56;5011567;28;20457;-67
2021/08/06 00:09:49;;;;;;;27.15;6.82;;;;;;;28.73;36.82;99130.47;5011557;28;20022;-64
2021/08/06 00:12:15;;;;;;;17.10;6.25;;;;;;;28.33;37.12;99137.28;5009992;28;20022;-67
2021/08/06 00:14:40;;;;;;;16.60;6.15;;;;;;;28.14;37.00;99140.97;5011439;28;20408;-68
2021/08/06 00:17:06;;;;;;;17.70;6.57;;;;;;;28.09;36.93;99140.41;4992506;28;20415;-68
2021/08/06 00:19:31;;;;;;;19.27;6.68;;;;;;;27.88;38.02;99129.16;5011475;28;20412;-67
2021/08/06 00:21:57;;;;;;;21.58;6.40;;;;;;;27.75;38.00;99143.13;5010080;28;20064;-67
2021/08/06 00:24:23;;;;;;;22.60;6.22;;;;;;;27.53;38.67;99122.22;5011790;28;20037;-67
2021/08/06 00:26:49;;;;;;;18.60;6.28;;;;;;;27.56;38.44;99145.91;5006506;28;20025;-64
2021/08/06 00:29:14;;;;;;;19.00;6.85;;;;;;;27.79;38.85;99145.59;5011959;28;20029;-67
2021/08/06 00:31:40;;;;;;;19.33;6.88;;;;;;;28.00;38.33;99138.22;5011723;28;20042;-65
2021/08/06 00:34:05;;;;;;;14.55;6.25;;;;;;;27.88;39.65;99137.97;5012057;28;20029;-68
2021/08/06 00:36:31;;;;;;;22.05;6.22;;;;;;;27.50;39.89;99113.59;5011686;28;20037;-69
2021/08/06 00:38:57;;;;;;;15.30;6.30;;;;;;;27.53;39.91;99158.50;5011752;28;20024;-64
2021/08/06 00:41:22;;;;;;;20.02;6.03;;;;;;;27.58;39.40;99148.50;5011648;28;20026;-68
2021/08/06 00:43:48;;;;;;;17.23;6.05;;;;;;;27.58;40.13;99140.53;5011298;28;20041;-66
2021/08/06 00:46:16;;;;;;;19.25;6.47;;;;;;;27.44;39.93;99125.38;5011918;28;20040;-65
2021/08/06 00:48:43;;;;;;;13.25;5.40;;;;;;;27.51;40.24;99139.16;5011619;28;20096;-64
2021/08/06 00:51:09;;;;;;;14.40;5.57;;;;;;;27.43;40.65;99115.72;5011709;28;20038;-67
2021/08/06 00:53:37;;;;;;;16.25;5.78;;;;;;;27.47;40.30;99140.28;5011702;28;20021;-65
2021/08/06 00:56:03;;;;;;;12.65;4.90;;;;;;;27.16;40.80;99150.69;5011440;28;20033;-64
2021/08/06 00:58:29;;;;;;;17.83;5.40;;;;;;;27.08;40.24;99132.56;5011704;28;20037;-64
2021/08/06 01:00:54;;;;;;;14.00;5.25;;;;;;;27.34;39.93;99140.91;5011282;28;20033;-66
2021/08/06 01:03:27;;;;;;;12.77;5.70;;;;;;;27.22;40.78;99142.41;5011622;28;20507;-62
2021/08/06 01:06:20;;;;;;;16.20;5.90;;;;;;;27.20;41.88;99132.84;5011599;28;20037;-63
2021/08/06 01:08:57;;;;;;;16.33;5.85;;;;;;;27.15;43.38;99145.47;4950508;29;20027;-63
2021/08/06 01:11:27;;;;;;;18.48;5.90;;;;;;;27.03;42.46;99144.31;4950924;29;20119;-69
2021/08/06 01:13:57;;;;;;;14.13;5.78;;;;;;;27.27;41.58;99137.72;4950728;29;20146;-68
2021/08/06 01:16:31;;;;;;;12.32;5.43;;;;;;;27.49;41.49;99123.34;4950743;29;20035;-66
2021/08/06 01:19:25;;;;;;;19.85;6.10;;;;;;;27.63;42.45;99122.59;4950458;29;20027;-66
2021/08/06 01:22:00;;;;;;;19.30;6.20;;;;;;;27.60;43.79;99113.00;4894016;29;20046;-62
2021/08/06 01:24:28;;;;;;;38.50;9.63;;;;;;;27.35;43.81;99113.44;4894010;29;20505;-64
2021/08/06 01:26:55;;;;;;;26.35;7.45;;;;;;;27.46;42.83;99112.91;4893551;29;20083;-63
2021/08/06 01:29:21;;;;;;;21.88;6.57;;;;;;;27.69;41.70;99105.47;4894030;29;20516;-65
2021/08/06 01:31:48;;;;;;;19.90;7.03;;;;;;;27.75;41.99;99095.38;4893310;29;20100;-65
2021/08/06 01:34:14;;;;;;;22.33;6.85;;;;;;;27.71;42.29;99098.28;4893674;29;20028;-63
2021/08/06 01:36:39;;;;;;;19.88;6.88;;;;;;;27.54;43.07;99096.56;4893660;29;20036;-66
2021/08/06 01:39:05;;;;;;;24.10;7.22;;;;;;;27.47;43.22;99098.72;4893383;29;20041;-66
2021/08/06 01:41:51;;;;;;;22.30;6.93;;;;;;;27.49;43.19;99078.28;4893792;29;20052;-63
2021/08/06 01:44:27;;;;;;;26.95;7.28;;;;;;;27.70;42.96;99076.22;4893463;29;20525;-65
2021/08/06 01:47:02;;;;;;;23.10;6.97;;;;;;;27.98;42.96;99108.28;4930589;29;20042;-68
2021/08/06 01:49:31;;;;;;;22.77;6.82;;;;;;;27.92;42.68;99102.38;4931160;29;20067;-63
2021/08/06 01:52:08;;;;;;;;;;;;;;;27.91;43.04;99095.38;4931790;29;20035;-64
2021/08/06 01:54:35;;;;;;;21.23;7.07;;;;;;;28.06;42.32;99098.09;4931158;29;20005;-64
2021/08/06 01:57:02;;;;;;;25.90;6.97;;;;;;;28.10;42.95;99083.72;4931233;29;20034;-63
2021/08/06 01:59:28;;;;;;;23.40;6.57;;;;;;;28.00;43.82;99077.22;4999553;28;20045;-67
2021/08/06 02:01:55;;;;;;;18.08;6.53;;;;;;;27.44;44.14;99075.88;5010974;28;20024;-63
2021/08/06 02:04:23;;;;;;;16.15;6.32;;;;;;;27.19;42.37;99076.34;5011157;28;20069;-62
2021/08/06 02:06:48;;;;;;;22.30;6.95;;;;;;;27.08;42.88;99063.69;5010882;28;20026;-65
2021/08/06 02:09:18;;;;;;;16.05;5.68;;;;;;;27.26;42.94;99063.63;5011177;28;20080;-63
2021/08/06 02:11:45;;;;;;;15.85;6.45;;;;;;;26.85;45.81;99080.78;4976505;28;20069;-66
2021/08/06 02:14:12;;;;;;;21.85;6.57;;;;;;;26.61;44.65;99070.50;5014814;28;20022;-66
2021/08/06 02:16:40;;;;;;;20.42;6.25;;;;;;;26.65;44.10;99073.88;5014475;28;20030;-63
2021/08/06 02:19:06;;;;;;;18.08;6.25;;;;;;;26.52;44.45;99071.00;5014841;28;20044;-69
2021/08/06 02:21:34;;;;;;;19.83;6.05;;;;;;;26.38;45.26;99078.78;5014402;28;20034;-64
2021/08/06 02:24:04;;;;;;;16.75;6.65;;;;;;;25.99;43.67;99049.81;4995998;28;20116;-66
2021/08/06 02:26:32;;;;;;;15.00;5.88;;;;;;;26.00;44.81;99109.66;5014188;28;20101;-66
2021/08/06 02:29:00;;;;;;;19.23;6.32;;;;;;;25.90;44.40;99066.09;5014197;28;20026;-68
2021/08/06 02:31:26;;;;;;;18.20;6.32;;;;;;;26.22;44.61;99089.28;5014454;28;20042;-67
2021/08/06 02:33:52;;;;;;;17.33;6.68;;;;;;;26.15;45.03;99092.22;5014140;28;20033;-69
2021/08/06 02:36:18;;;;;;;20.95;6.25;;;;;;;26.20;44.58;99094.66;5013948;28;20034;-68
2021/08/06 02:38:43;;;;;;;16.27;6.25;;;;;;;26.26;43.91;99053.81;5013843;28;20499;-67
2021/08/06 02:41:09;;;;;;;17.85;6.22;;;;;;;26.51;43.48;99036.69;4979356;28;20041;-65
2021/08/06 02:43:38;;;;;;;14.82;5.88;;;;;;;26.79;43.99;99036.09;5012943;28;20033;-64
2021/08/06 02:46:04;;;;;;;13.82;6.38;;;;;;;27.01;44.87;99053.50;5014157;28;20112;-66
2021/08/06 02:48:29;;;;;;;19.48;6.85;;;;;;;26.98;46.23;99057.19;5013687;28;20156;-67
2021/08/06 02:50:55;;;;;;;23.70;6.93;;;;;;;27.00;46.58;99059.75;5014248;28;20058;-67
2021/08/06 02:53:20;;;;;;;29.85;8.52;;;;;;;26.82;46.96;99066.84;5013967;28;20018;-67
2021/08/06 02:55:45;;;;;;;17.27;6.18;;;;;;;26.73;46.04;99060.22;5014090;28;20044;-64
2021/08/06 02:58:11;;;;;;;16.67;7.18;;;;;;;26.73;45.40;99070.81;5013680;28;20022;-70
2021/08/06 03:00:36;;;;;;;23.17;7.22;;;;;;;26.73;45.86;99070.81;5014011;28;20110;-66
2021/08/06 03:03:02;;;;;;;21.60;6.60;;;;;;;26.42;46.76;99094.44;5013503;28;20040;-66
2021/08/06 03:05:27;;;;;;;16.92;6.28;;;;;;;26.27;45.31;99101.34;5013765;28;20037;-64
2021/08/06 03:07:53;;;;;;;24.48;7.47;;;;;;;25.76;46.33;99097.66;5013825;28;20026;-66
2021/08/06 03:10:20;;;;;;;27.40;6.90;;;;;;;25.77;46.84;99091.44;5013569;28;20033;-66
2021/08/06 03:12:50;;;;;;;32.58;7.00;;;;;;;25.62;46.73;99070.09;5013644;28;20029;-67
2021/08/06 03:15:17;;;;;;;19.08;6.97;;;;;;;25.72;46.81;99101.38;5013162;28;20022;-64
2021/08/06 03:17:43;;;;;;;28.27;7.93;;;;;;;25.68;46.64;99083.03;5012998;28;20030;-66
2021/08/06 03:20:11;;;;;;;27.23;7.38;;;;;;;25.49;47.35;99050.47;5013581;28;20092;-67
2021/08/06 03:22:38;;;;;;;44.45;9.15;;;;;;;25.62;47.28;99095.66;5013840;28;20018;-64
2021/08/06 03:25:08;;;;;;;29.05;7.65;;;;;;;25.56;47.73;99093.31;5013027;28;20503;-71
2021/08/06 03:27:34;;;;;;;22.50;7.00;;;;;;;25.49;48.39;99092.75;5013818;28;20064;-66
2021/08/06 03:30:00;;;;;;;18.13;6.78;;;;;;;25.22;48.56;99090.41;5013421;28;20133;-64
2021/08/06 03:32:26;;;;;;;19.65;6.65;;;;;;;25.40;48.19;99091.38;5013438;28;20049;-65
2021/08/06 03:34:51;;;;;;;22.08;7.28;;;;;;;25.32;48.53;99089.06;5013486;28;20455;-65
2021/08/06 03:37:17;;;;;;;27.98;8.32;;;;;;;25.44;48.53;99086.81;5013368;28;20029;-68
2021/08/06 03:39:42;;;;;;;19.13;7.10;;;;;;;25.41;48.58;99065.81;5013446;28;20404;-68
2021/08/06 03:42:08;;;;;;;22.63;7.40;;;;;;;25.32;49.29;99083.78;5012977;28;20145;-64
2021/08/06 03:44:34;;;;;;;25.15;8.02;;;;;;;25.21;49.80;99091.34;5013113;28;20495;-66
2021/08/06 03:47:03;;;;;;;25.40;7.78;;;;;;;25.24;50.29;99091.19;5013014;28;20040;-65
2021/08/06 03:49:29;;;;;;;24.65;7.78;;;;;;;24.84;50.81;99024.38;5013108;28;20033;-67
2021/08/06 03:51:54;;;;;;;25.23;8.18;;;;;;;25.04;49.92;99039.31;5013181;28;20033;-68
2021/08/06 03:54:19;;;;;;;29.52;9.10;;;;;;;25.25;50.19;99076.22;5013156;28;20110;-64
2021/08/06 03:56:45;;;;;;;22.98;7.38;;;;;;;25.18;49.67;99080.91;5012155;28;20033;-70
2021/08/06 03:59:10;;;;;;;24.80;6.80;;;;;;;25.12;50.29;99083.84;5012807;28;20022;-64
2021/08/06 04:01:36;;;;;;;20.95;6.65;;;;;;;25.08;50.05;99084.91;5013060;28;20030;-68
2021/08/06 04:04:01;;;;;;;18.98;7.28;;;;;;;25.15;49.92;99068.72;5012862;28;20075;-65
2021/08/06 04:06:27;;;;;;;22.52;7.55;;;;;;;25.08;51.14;99082.28;5012918;28;20030;-70
2021/08/06 04:08:53;;;;;;;25.70;8.48;;;;;;;25.11;50.60;99074.19;5012973;28;20026;-68
2021/08/06 04:11:20;;;;;;;22.38;7.78;;;;;;;25.16;49.62;99077.47;5013035;28;20091;-71
2021/08/06 04:13:45;;;;;;;26.45;8.25;;;;;;;25.27;50.54;99059.38;5013104;28;20018;-64
2021/08/06 04:16:11;;;;;;;21.95;7.93;;;;;;;25.42;49.91;99057.84;5012447;28;20026;-66
2021/08/06 04:18:36;;;;;;;16.13;7.40;;;;;;;25.74;50.28;99075.72;5012735;28;20025;-71
2021/08/06 04:21:01;;;;;;;18.35;7.60;;;;;;;25.84;50.68;99069.06;5012770;28;20022;-69
2021/08/06 04:23:27;;;;;;;17.20;7.68;;;;;;;25.89;49.97;99074.97;5012413;28;20587;-64
2021/08/06 04:25:53;;;;;;;19.58;7.90;;;;;;;25.86;50.66;99061.03;5012606;28;20030;-70
2021/08/06 04:28:18;;;;;;;28.83;8.10;;;;;;;25.87;51.37;99082.13;5012687;28;20018;-66
2021/08/06 04:30:44;;;;;;;21.80;7.95;;;;;;;25.76;50.46;99077.38;5012080;28;20030;-68
2021/08/06 04:33:09;;;;;;;23.85;7.60;;;;;;;25.57;50.01;99069.47;5012570;28;20060;-66
2021/08/06 04:35:35;;;;;;;20.48;7.65;;;;;;;25.42;51.09;99086.91;5011596;28;20073;-69
2021/08/06 04:38:00;;;;;;;26.63;8.57;;;;;;;25.17;51.62;99066.88;5012237;28;20034;-66
2021/08/06 04:40:26;;;;;;;23.50;7.82;;;;;;;25.15;52.12;99094.28;5012402;28;20105;-65
2021/08/06 04:42:52;;;;;;;24.25;8.07;;;;;;;25.17;52.18;99097.69;5012459;28;20092;-66
2021/08/06 04:45:18;;;;;;;21.13;7.63;;;;;;;25.27;52.25;99096.34;5012085;28;20128;-71
2021/08/06 04:47:45;;;;;;;19.85;7.35;;;;;;;25.20;52.58;99082.56;5012348;28;20113;-69
2021/08/06 04:50:12;;;;;;;25.67;8.43;;;;;;;25.35;53.07;99098.63;5012287;28;20053;-65
2021/08/06 04:52:38;;;;;;;25.35;8.45;;;;;;;25.42;52.35;99104.53;5010247;28;20432;-66
2021/08/06 04:55:03;;;;;;;22.98;8.45;;;;;;;25.49;51.92;99108.59;5012711;28;20025;-65
2021/08/06 04:57:29;;;;;;;22.30;7.60;;;;;;;25.52;51.29;99071.44;5012301;28;20022;-65
2021/08/06 04:59:54;;;;;;;29.67;8.05;;;;;;;25.88;52.53;99098.84;5011657;28;20492;-66
2021/08/06 05:02:20;;;;;;;14.88;7.22;;;;;;;26.05;51.86;99093.59;5011847;28;20030;-66
2021/08/06 05:04:45;;;;;;;18.63;7.50;;;;;;;26.17;51.38;99092.19;5012077;28;20037;-67
2021/08/06 05:07:18;;;;;;;14.85;6.90;;;;;;;26.40;50.49;99090.16;5011848;28;20034;-64
2021/08/06 05:09:45;;;;;;;16.98;8.10;;;;;;;26.62;51.39;99087.28;5012039;28;20030;-67
2021/08/06 05:12:10;;;;;;;20.98;7.80;;;;;;;26.74;49.47;99081.38;5012088;28;20029;-67
2021/08/06 05:14:36;;;;;;;19.45;7.35;;;;;;;26.86;49.78;99079.84;5011672;28;20107;-67
2021/08/06 05:17:01;;;;;;;17.48;7.45;;;;;;;26.95;48.10;99071.44;5011761;28;20026;-64
2021/08/06 05:19:27;;;;;;;18.75;7.60;;;;;;;27.06;47.38;99072.66;5009456;28;20546;-69
2021/08/06 05:21:52;;;;;;;16.00;7.40;;;;;;;27.25;46.93;99070.72;5011969;28;20034;-69
2021/08/06 05:24:17;;;;;;;19.02;7.38;;;;;;;27.33;47.19;99062.34;5011930;28;20026;-68
2021/08/06 05:26:43;;;;;;;18.95;7.97;;;;;;;27.44;46.90;99056.47;5011482;28;20108;-64
2021/08/06 05:29:08;;;;;;;25.65;7.95;;;;;;;27.48;47.23;99062.44;5011383;28;20412;-69
2021/08/06 05:31:34;;;;;;;23.50;8.13;;;;;;;27.59;46.57;99068.88;5011362;28;20492;-66
2021/08/06 05:33:59;;;;;;;15.63;7.20;;;;;;;27.68;46.42;99082.56;5011768;28;20505;-64
2021/08/06 05:36:25;;;;;;;22.63;7.55;;;;;;;27.66;47.30;99103.84;5011657;28;20505;-66
2021/08/06 05:38:50;;;;;;;23.77;7.88;;;;;;;27.65;47.14;99107.44;5011411;28;20026;-65
2021/08/06 05:41:15;;;;;;;32.78;9.52;;;;;;;27.37;47.61;99105.44;5011620;28;20034;-67
2021/08/06 05:43:41;;;;;;;24.67;7.50;;;;;;;27.42;47.55;99119.31;5011267;28;20174;-71
2021/08/06 05:46:08;;;;;;;26.85;7.78;;;;;;;27.42;48.09;99111.38;5011580;28;20033;-65
2021/08/06 05:48:33;;;;;;;23.58;8.63;;;;;;;27.47;48.55;99116.44;5014410;28;20034;-69
2021/08/06 05:50:59;;;;;;;22.90;6.80;;;;;;;27.50;47.94;99111.78;5015504;28;20064;-68
2021/08/06 05:53:24;;;;;;;20.50;7.70;;;;;;;27.57;48.48;99118.47;5015704;28;20403;-65
2021/08/06 05:55:50;;;;;;;22.85;7.57;;;;;;;27.41;48.85;99086.66;5015158;28;20030;-66
2021/08/06 05:58:15;;;;;;;22.02;7.90;;;;;;;27.60;48.81;99117.44;5015149;28;20022;-65
2021/08/06 06:00:41;;;;;;;21.55;7.90;;;;;;;27.70;47.32;99120.44;5015307;28;20443;-65
2021/08/06 06:03:06;;;;;;;21.20;7.28;;;;;;;27.67;47.27;99115.31;5015104;28;20033;-68
2021/08/06 06:05:32;;;;;;;17.38;7.60;;;;;;;27.63;47.24;99111.09;5015006;28;20416;-64
2021/08/06 06:07:57;;;;;;;21.90;7.82;;;;;;;27.62;48.06;99104.13;5014883;28;20472;-64
2021/08/06 06:10:22;;;;;;;23.77;7.65;;;;;;;27.75;47.66;99108.66;5014816;28;20022;-65
2021/08/06 06:12:50;;;;;;;23.00;8.35;;;;;;;27.70;47.68;99117.78;5014639;28;20042;-65
2021/08/06 06:15:16;;;;;;;22.25;7.70;;;;;;;27.78;47.98;99110.28;5014738;28;20455;-76
2021/08/06 06:17:41;;;;;;;20.40;7.28;;;;;;;27.92;47.32;99117.44;5008268;28;20455;-69
2021/08/06 06:20:07;;;;;;;25.20;7.65;;;;;;;27.93;47.08;99101.44;5006376;28;20028;-67
2021/08/06 06:22:33;;;;;;;27.92;8.90;;;;;;;28.09;49.60;99119.16;5003979;28;20045;-65
2021/08/06 06:24:59;;;;;;;15.98;7.72;;;;;;;28.06;47.65;99136.13;5005481;28;20400;-64
2021/08/06 06:27:25;;;;;;;20.58;7.60;;;;;;;28.05;48.71;99133.53;5004038;28;20038;-66
2021/08/06 06:29:50;;;;;;;16.23;6.90;;;;;;;28.10;47.29;99126.16;5005152;28;20014;-64
2021/08/06 06:32:15;;;;;;;19.13;7.20;;;;;;;28.19;46.39;99124.81;5002530;28;20054;-64
2021/08/06 06:34:41;;;;;;;15.20;6.57;;;;;;;28.28;47.52;99129.56;5003521;28;20069;-65
2021/08/06 06:37:06;;;;;;;18.38;7.03;;;;;;;28.34;45.77;99133.69;5005912;28;20404;-64
2021/08/06 06:39:32;;;;;;;15.00;6.55;;;;;;;28.30;45.43;99102.94;5013949;28;20032;-70
2021/08/06 06:41:57;;;;;;;16.67;7.00;;;;;;;28.64;47.43;99122.19;5014307;28;20058;-65
2021/08/06 06:44:23;;;;;;;20.48;6.45;;;;;;;28.73;46.34;99124.31;5014605;28;20057;-64
2021/08/06 06:46:48;;;;;;;11.00;6.43;;;;;;;28.91;42.02;99109.06;5011267;28;20030;-65
2021/08/06 06:49:14;;;;;;;17.48;7.05;;;;;;;29.15;43.00;99125.31;5003301;28;20088;-64
2021/08/06 06:51:39;;;;;;;14.60;7.00;;;;;;;29.30;43.23;99122.69;5005037;28;20052;-67
2021/08/06 06:54:05;;;;;;;14.63;7.13;;;;;;;29.28;42.47;99120.06;5004380;28;20030;-64
2021/08/06 06:56:31;;;;;;;12.07;6.60;;;;;;;29.34;43.61;99119.72;4984634;28;20042;-66
2021/08/06 06:58:56;;;;;;;20.95;6.55;;;;;;;29.37;42.22;99113.34;5012224;28;20080;-66
2021/08/06 07:01:21;;;;;;;16.10;7.22;;;;;;;29.41;42.36;99122.00;4978914;28;20038;-67
2021/08/06 07:03:47;;;;;;;23.63;7.03;;;;;;;29.51;42.86;99120.47;5013675;28;20022;-67
2021/08/06 07:06:18;;;;;;;16.00;6.05;;;;;;;29.62;42.38;99122.44;5014010;28;20037;-65
2021/08/06 07:08:43;;;;;;;15.20;6.47;;;;;;;29.81;40.99;99120.31;5013443;28;20538;-68
2021/08/06 07:11:09;;;;;;;16.30;5.47;;;;;;;30.08;40.16;99110.66;5013320;28;20021;-67
2021/08/06 07:13:34;;;;;;;15.07;5.40;;;;;;;30.13;39.12;99112.06;5013471;28;20084;-67
2021/08/06 07:16:00;;;;;;;13.23;5.07;;;;;;;30.24;38.42;99097.19;5013678;28;20026;-66
2021/08/06 07:18:26;;;;;;;12.57;5.50;;;;;;;30.42;39.32;99109.25;5013193;28;20412;-68
2021/08/06 07:20:52;;;;;;;13.95;5.00;;;;;;;30.50;38.50;99114.94;5013167;28;20025;-64
2021/08/06 07:23:17;;;;;;;13.15;4.78;;;;;;;30.44;37.40;99109.16;5010593;28;20423;-69
2021/08/06 07:25:43;;;;;;;23.20;5.75;;;;;;;30.40;36.59;99105.00;5013740;28;20559;-67
2021/08/06 07:28:08;;;;;;;25.40;5.20;;;;;;;30.33;36.17;99116.06;5013097;28;20022;-67
2021/08/06 07:30:34;;;;;;;12.63;5.05;;;;;;;30.14;37.26;99115.56;5013012;28;20169;-68
2021/08/06 07:32:59;;;;;;;16.40;5.32;;;;;;;29.87;36.51;99079.16;5013217;28;20053;-68
2021/08/06 07:35:31;;;;;;;13.30;4.95;;;;;;;29.96;36.33;99109.66;5012303;28;20052;-66
2021/08/06 07:38:11;;;;;;;16.90;5.50;;;;;;;29.76;36.93;99077.19;4971248;28;20061;-66
2021/08/06 07:40:37;;;;;;;17.65;5.10;;;;;;;29.88;37.15;99111.94;4971756;28;20484;-67
2021/08/06 07:43:02;;;;;;;23.80;5.85;;;;;;;30.00;37.33;99104.03;4972101;28;20038;-67
2021/08/06 07:45:28;;;;;;;20.42;5.25;;;;;;;30.11;37.06;99103.31;4971856;28;20035;-68
2021/08/06 07:47:53;;;;;;;25.38;6.43;;;;;;;30.26;36.23;99096.13;4971519;28;20054;-66
2021/08/06 07:50:19;;;;;;;24.00;6.43;;;;;;;30.39;36.03;99111.28;4971644;28;20023;-65
2021/08/06 07:52:45;;;;;;;20.45;6.50;;;;;;;30.54;36.90;99104.09;4971287;28;20034;-68
2021/08/06 07:55:16;;;;;;;21.17;5.10;;;;;;;30.66;35.90;99109.41;4971407;28;20027;-64
2021/08/06 07:57:42;;;;;;;17.60;5.68;;;;;;;30.62;34.79;99099.94;4969252;28;20423;-64
2021/08/06 08:00:09;;;;;;;11.73;4.65;;;;;;;30.71;36.26;99098.44;4955263;28;20125;-63
2021/08/06 08:02:36;;;;;;;16.38;4.85;;;;;;;30.93;36.71;99103.16;4971094;28;20049;-68
2021/08/06 08:05:02;;;;;;;17.08;5.35;;;;;;;30.80;35.49;99081.81;4971416;28;20027;-67
2021/08/06 08:07:28;;;;;;;12.38;5.40;;;;;;;30.95;34.85;99119.03;4971278;28;20125;-63
2021/08/06 08:09:53;;;;;;;13.27;4.72;;;;;;;31.06;34.20;99108.47;5003435;28;20124;-67
2021/08/06 08:12:18;;;;;;;22.77;5.22;;;;;;;31.09;35.85;99121.63;5011309;28;20030;-69
2021/08/06 08:14:47;;;;;;;15.18;5.13;;;;;;;31.10;35.13;99101.13;5011745;28;20160;-63
2021/08/06 08:17:13;;;;;;;13.18;4.75;;;;;;;31.27;34.14;99105.28;5012450;28;20120;-67
2021/08/06 08:19:38;;;;;;;13.07;5.25;;;;;;;31.34;34.66;99114.56;5012079;28;20475;-66
2021/08/06 08:22:04;;;;;;;17.02;5.25;;;;;;;31.42;34.75;99114.00;5011966;28;20033;-66
2021/08/06 08:24:30;;;;;;;20.90;5.70;;;;;;;31.39;34.81;99112.41;5011859;28;20053;-63
2021/08/06 08:26:56;;;;;;;18.50;5.45;;;;;;;31.49;33.84;99112.59;5012182;28;20034;-66
2021/08/06 08:29:21;;;;;;;13.63;4.93;;;;;;;31.51;35.95;99109.81;5012423;28;20030;-69
2021/08/06 08:31:47;;;;;;;18.73;4.68;;;;;;;31.62;33.66;99102.72;5012341;28;20132;-66
2021/08/06 08:34:12;;;;;;;13.27;4.88;;;;;;;31.79;33.96;99095.34;5011241;28;20073;-67
2021/08/06 08:36:38;;;;;;;16.13;5.78;;;;;;;31.73;34.11;99101.97;5012116;28;20025;-67
2021/08/06 08:39:04;;;;;;;11.30;4.85;;;;;;;31.73;33.52;99093.97;5011354;28;20026;-64
2021/08/06 08:41:31;;;;;;;15.70;4.95;;;;;;;31.38;34.49;99086.69;5012167;28;20049;-68
2021/08/06 08:43:57;;;;;;;23.30;4.90;;;;;;;31.62;34.39;99091.22;5011994;28;20080;-66
2021/08/06 08:46:27;;;;;;;13.52;4.80;;;;;;;31.88;33.34;99093.81;5012147;28;20496;-67
2021/08/06 08:48:56;;;;;;;14.55;4.05;;;;;;;32.03;32.88;99086.50;5012155;28;20030;-68
2021/08/06 08:51:23;;;;;;;15.80;4.80;;;;;;;32.11;33.79;99100.09;5012182;28;20022;-68
2021/08/06 08:53:48;;;;;;;11.48;4.70;;;;;;;32.20;33.21;99088.78;5011522;28;20037;-68
2021/08/06 08:56:14;;;;;;;15.77;5.07;;;;;;;32.26;33.60;99082.09;5012018;28;20026;-68
2021/08/06 08:58:40;;;;;;;13.85;4.90;;;;;;;32.28;33.04;99098.00;5010935;28;20083;-67
2021/08/06 09:01:06;;;;;;;14.57;4.00;;;;;;;32.43;31.89;99089.69;5011934;28;20030;-73
2021/08/06 09:03:36;;;;;;;13.98;4.22;;;;;;;32.61;32.42;99091.91;5011804;28;20022;-68
2021/08/06 09:06:02;;;;;;;10.55;4.18;;;;;;;32.68;32.36;99101.16;5012240;28;20030;-67
2021/08/06 09:08:27;;;;;;;12.88;4.20;;;;;;;32.80;31.46;99095.84;5011690;28;20141;-67
2021/08/06 09:10:53;;;;;;;15.25;4.20;;;;;;;32.83;31.61;99093.81;5011330;28;20078;-68
2021/08/06 09:16:14;;;;;;;9.50;4.25;;;;;;;33.19;32.13;99096.38;5114242;22;20061;-67
2021/08/06 09:18:40;;;;;;;11.05;3.80;;;;;;;33.23;30.79;99097.81;5021626;28;20025;-66
2021/08/06 09:21:17;;;;;;;12.23;4.22;;;;;;;33.34;32.05;99097.84;5020216;28;20049;-67
2021/08/06 09:23:57;;;;;;;11.80;4.22;;;;;;;32.99;30.87;99079.25;5020146;28;20124;-69
2021/08/06 09:26:44;;;;;;;12.90;4.45;;;;;;;32.82;30.64;99102.78;4986212;28;20038;-67
2021/08/06 09:29:20;;;;;;;14.27;4.72;;;;;;;32.84;31.81;99098.19;5017509;28;20029;-69
2021/08/06 09:31:51;;;;;;;16.35;4.63;;;;;;;32.91;31.74;99103.88;5020267;28;20029;-67
2021/08/06 09:34:31;;;;;;;9.25;3.70;;;;;;;33.04;31.44;99101.97;5020938;28;20033;-69
2021/08/06 09:37:09;;;;;;;14.68;4.45;;;;;;;33.12;31.10;99090.66;5018976;28;20030;-68
2021/08/06 09:39:45;;;;;;;22.52;4.60;;;;;;;32.95;32.19;99096.47;5018817;28;20118;-69
2021/08/06 09:42:17;;;;;;;16.10;4.88;;;;;;;32.56;31.26;99065.56;5017364;28;20103;-69
2021/08/06 09:44:44;;;;;;;11.93;4.15;;;;;;;32.67;31.43;99095.94;5019567;28;20021;-68
2021/08/06 09:47:18;;;;;;;12.90;3.85;;;;;;;32.83;32.02;99079.59;5017508;28;20026;-69
2021/08/06 09:49:46;;;;;;;16.58;4.30;;;;;;;32.98;31.76;99069.53;5019043;28;20088;-69
2021/08/06 09:52:12;;;;;;;17.60;5.15;;;;;;;33.01;31.83;99096.88;5019897;28;20022;-69
2021/08/06 09:54:37;;;;;;;14.57;4.88;;;;;;;33.05;30.51;99092.13;5020993;28;20029;-70
2021/08/06 09:57:13;;;;;;;13.68;4.00;;;;;;;32.82;31.83;99081.41;5021709;28;20053;-69
2021/08/06 09:59:40;;;;;;;31.33;6.20;;;;;;;33.12;31.38;99097.84;5027642;28;20112;-69
2021/08/06 10:02:22;;;;;;;19.55;5.65;;;;;;;32.87;31.97;99092.56;5030893;28;20025;-69
2021/08/06 10:05:08;;;;;;;9.88;3.88;;;;;;;32.23;31.80;99024.44;5026890;28;20026;-68
2021/08/06 10:07:36;;;;;;;16.83;3.80;;;;;;;32.42;32.19;99071.94;5020022;28;20056;-67
2021/08/06 10:10:07;;;;;;;13.43;3.70;;;;;;;32.56;32.58;99078.06;5016094;28;20021;-68
2021/08/06 10:12:33;;;;;;;10.05;3.42;;;;;;;32.69;32.97;99072.63;5020201;28;20061;-68
2021/08/06 10:14:59;;;;;;;10.27;3.35;;;;;;;32.61;32.40;99070.53;5010844;28;20516;-68
2021/08/06 10:17:24;;;;;;;11.15;3.75;;;;;;;32.88;32.67;99067.56;5009722;28;20116;-68
2021/08/06 10:19:50;;;;;;;8.52;3.63;;;;;;;32.94;30.93;99063.56;5010957;28;20018;-67
2021/08/06 10:22:36;;;;;;;13.15;4.05;;;;;;;32.65;31.60;99063.13;4978936;28;20563;-67
2021/08/06 10:25:05;;;;;;;10.13;3.40;;;;;;;33.18;31.11;99062.56;4973125;28;20082;-68
2021/08/06 10:27:31;;;;;;;10.57;4.10;;;;;;;33.43;30.90;99061.47;4975021;28;20050;-66
2021/08/06 10:30:01;;;;;;;13.65;3.85;;;;;;;33.32;30.18;99056.16;4970255;28;20038;-69
2021/08/06 10:32:28;;;;;;;13.48;4.00;;;;;;;33.20;32.50;99055.28;4985815;28;20070;-68
2021/08/06 10:35:02;;;;;;;9.80;3.70;;;;;;;33.15;32.08;99057.47;4962029;28;20466;-68
2021/08/06 10:37:57;;;;;;;11.65;3.72;;;;;;;33.22;30.64;99056.00;4973986;28;20034;-68
2021/08/06 10:40:40;;;;;;;9.98;3.67;;;;;;;33.24;30.70;99070.13;4983003;28;20543;-69
2021/08/06 10:43:08;;;;;;;9.48;3.58;;;;;;;33.04;30.20;99056.50;4972906;28;20476;-69
2021/08/06 10:45:54;;;;;;;9.75;3.88;;;;;;;33.44;29.96;99067.69;4989907;28;20094;-68
2021/08/06 10:48:32;;;;;;;9.20;3.58;;;;;;;33.85;29.36;99050.09;4992246;28;20034;-68
2021/08/06 10:51:16;;;;;;;11.65;3.63;;;;;;;33.93;29.42;99055.63;4978091;28;20081;-68
2021/08/06 10:53:44;;;;;;;10.82;3.78;;;;;;;33.86;30.28;99054.47;4995480;28;20578;-68
2021/08/06 10:56:16;;;;;;;10.33;3.90;;;;;;;33.92;29.91;99053.97;5012781;28;20531;-69
2021/08/06 10:58:53;;;;;;;10.10;3.83;;;;;;;34.11;28.82;99058.63;5014305;28;20307;-67
2021/08/06 11:01:25;;;;;;;10.38;4.10;;;;;;;34.00;28.73;99047.97;5014319;28;20029;-68
2021/08/06 11:03:56;;;;;;;10.15;4.00;;;;;;;33.91;28.51;99052.25;5013405;28;20061;-69
2021/08/06 11:06:39;;;;;;;9.25;3.70;;;;;;;33.85;29.23;99058.94;5013773;28;20404;-69
2021/08/06 11:09:06;;;;;;;13.18;4.30;;;;;;;33.39;29.53;99046.66;5013885;28;20408;-70
2021/08/06 11:11:56;;;;;;;10.75;4.20;;;;;;;33.32;30.66;99059.69;4979307;28;20038;-67
2021/08/06 11:14:30;;;;;;;9.13;3.95;;;;;;;33.49;29.96;99049.44;5013412;28;20058;-67
2021/08/06 11:17:16;;;;;;;12.25;5.18;;;;;;;33.36;31.17;99060.25;5013218;28;20041;-68
2021/08/06 11:19:46;;;;;;;8.73;4.28;;;;;;;33.54;30.58;99033.84;5013938;28;20095;-68
2021/08/06 11:22:14;;;;;;;17.17;4.40;;;;;;;33.65;29.20;99052.53;5027789;28;20049;-69
2021/08/06 11:24:43;;;;;;;9.43;3.53;;;;;;;33.38;30.00;99040.44;5013994;28;20041;-69
2021/08/06 11:27:11;;;;;;;11.77;4.22;;;;;;;33.31;29.87;99051.75;5013800;28;20025;-69
2021/08/06 11:29:37;;;;;;;10.15;5.13;;;;;;;33.10;30.15;99024.91;5013471;28;20052;-68
2021/08/06 11:32:12;;;;;;;10.27;4.20;;;;;;;33.32;30.06;99050.78;5013848;28;20480;-69